Time;durP1;ratioP1;P1;durP2;ratioP2;P2;SDS_P1;SDS_P2;PMS_P1;PMS_P2;Temp;Humidity;BMP_temperature;BMP_pressure;BME280_temperature;BME280_humidity;BME280_pressure;Samples;Min_cycle;Max_cycle;Signal;HPM_P1;HPM_P2
2021/12/10 00:01:12;;;;;;;8.90;8.00;;;4.80;1.00;6.00;99068.00;;;;5028693;28;20498;-74
2021/12/10 00:03:46;;;;;;;9.97;7.90;;;4.80;1.00;6.00;99050.00;;;;5044235;28;20543;-74
2021/12/10 00:06:20;;;;;;;9.53;8.20;;;4.80;1.00;5.90;99079.00;;;;5048015;28;20466;-74
2021/12/10 00:08:53;;;;;;;9.83;7.63;;;4.80;1.00;5.90;99018.00;;;;5035124;28;20453;-74
2021/12/10 00:11:28;;;;;;;9.13;7.20;;;4.70;1.00;5.90;99041.00;;;;5036649;28;20973;-74
2021/12/10 00:13:57;;;;;;;9.97;8.40;;;4.70;1.00;5.80;99019.00;;;;5017168;28;20453;-74
2021/12/10 00:16:25;;;;;;;10.57;8.00;;;4.70;1.00;5.80;99035.00;;;;5007518;28;20516;-74
2021/12/10 00:19:08;;;;;;;12.63;8.63;;;4.70;1.00;5.80;99032.00;;;;5018250;28;20480;-74
2021/12/10 00:21:36;;;;;;;9.67;7.80;;;4.60;1.00;5.70;99040.00;;;;5059194;28;20561;-76
2021/12/10 00:24:06;;;;;;;13.97;8.40;;;4.60;1.00;5.70;99040.00;;;;5044790;28;20461;-75
2021/12/10 00:26:35;;;;;;;10.03;7.87;;;4.60;1.00;5.70;99030.00;;;;5040208;28;20475;-74
2021/12/10 00:29:06;;;;;;;7.70;6.90;;;4.60;1.00;5.80;99027.00;;;;5055483;28;21453;-74
2021/12/10 00:31:47;;;;;;;9.80;8.00;;;4.60;1.00;5.80;99026.00;;;;5054579;28;20490;-74
2021/12/10 00:34:24;;;;;;;13.23;8.70;;;4.60;1.00;5.80;99024.00;;;;5046055;28;20475;-73
2021/12/10 00:36:57;;;;;;;8.23;7.23;;;4.60;1.00;5.90;98991.00;;;;5067647;28;20540;-74
2021/12/10 00:39:31;;;;;;;8.83;6.50;;;4.60;1.00;5.90;99026.00;;;;5035137;28;20457;-73
2021/12/10 00:42:06;;;;;;;15.87;9.83;;;4.60;1.00;6.00;99013.00;;;;5040085;28;20445;-74
2021/12/10 00:44:34;;;;;;;10.43;7.30;;;4.70;1.00;6.00;98967.00;;;;5044983;28;20449;-74
2021/12/10 00:47:03;;;;;;;11.33;7.40;;;4.70;1.00;6.00;99000.00;;;;5056687;28;20437;-74
2021/12/10 00:49:34;;;;;;;10.50;6.43;;;4.70;1.00;6.00;99003.00;;;;5052266;28;20458;-74
2021/12/10 00:52:06;;;;;;;12.43;7.17;;;4.70;1.00;6.00;98971.00;;;;5038962;28;20531;-74
2021/12/10 00:54:35;;;;;;;10.73;6.27;;;4.80;1.00;6.10;98968.00;;;;5034710;28;20524;-75
2021/12/10 00:57:05;;;;;;;9.50;5.73;;;4.80;1.00;6.10;98965.00;;;;5035060;28;21057;-75
2021/12/10 00:59:33;;;;;;;12.07;6.27;;;4.80;1.00;6.20;98974.00;;;;5038553;28;20440;-75
2021/12/10 01:02:02;;;;;;;11.60;6.73;;;4.90;1.00;6.20;98976.00;;;;5034581;28;20486;-77
2021/12/10 01:04:36;;;;;;;13.40;6.93;;;4.80;1.00;6.10;98975.00;;;;5027700;28;20456;-76
2021/12/10 01:07:09;;;;;;;15.07;6.40;;;4.90;1.00;6.30;98962.00;;;;5040704;28;20991;-76
2021/12/10 01:09:42;;;;;;;15.70;7.10;;;4.90;1.00;6.30;98956.00;;;;5039557;28;20930;-76
2021/12/10 01:12:17;;;;;;;9.87;6.00;;;4.90;1.00;6.30;98935.00;;;;5020307;28;20476;-75
2021/12/10 01:15:05;;;;;;;13.67;7.07;;;5.00;1.00;6.40;98958.00;;;;5045592;28;20463;-75
2021/12/10 01:26:11;;;;;;;11.43;7.13;;;4.90;1.00;6.30;98949.00;;;;5014731;28;20462;-74
2021/12/10 01:28:44;;;;;;;10.73;6.73;;;5.00;1.00;6.10;98941.00;;;;5015173;28;20418;-75
2021/12/10 01:31:12;;;;;;;10.67;6.40;;;4.90;1.00;6.30;98943.00;;;;5007001;28;20824;-73
2021/12/10 01:33:43;;;;;;;17.90;6.20;;;5.00;1.00;6.40;98916.00;;;;5029709;28;20461;-73
2021/12/10 01:36:13;;;;;;;10.40;6.90;;;5.00;1.00;6.30;98915.00;;;;5032953;28;20829;-73
2021/12/10 01:38:46;;;;;;;12.63;6.60;;;5.00;1.00;6.30;98929.00;;;;5032028;28;20436;-73
2021/12/10 01:41:17;;;;;;;12.07;6.27;;;5.00;1.00;6.30;98921.00;;;;5024152;28;20441;-74
2021/12/10 01:43:51;;;;;;;12.73;6.13;;;5.00;1.00;6.20;98920.00;;;;5013702;28;20933;-73
2021/12/10 01:46:26;;;;;;;10.10;6.03;;;5.00;1.00;6.20;98922.00;;;;5023063;28;20563;-73
2021/12/10 01:48:58;;;;;;;11.37;6.17;;;5.00;1.00;6.20;98918.00;;;;5034216;28;20455;-76
2021/12/10 01:51:33;;;;;;;12.13;6.33;;;5.00;1.00;6.30;98916.00;;;;5035402;28;20432;-73
2021/12/10 01:54:06;;;;;;;11.00;6.43;;;5.00;1.00;6.30;98889.00;;;;5053114;28;20428;-73
2021/12/10 01:56:38;;;;;;;10.70;5.73;;;5.00;1.00;6.40;98869.00;;;;5030107;28;20533;-73
2021/12/10 01:59:11;;;;;;;14.57;6.60;;;5.00;1.00;6.30;98888.00;;;;5018022;28;20817;-73
2021/12/10 02:01:45;;;;;;;11.63;6.40;;;5.10;1.00;6.30;98882.00;;;;5014248;28;20544;-72
2021/12/10 02:04:21;;;;;;;13.67;6.80;;;5.10;1.00;6.40;98879.00;;;;5035974;28;20985;-74
2021/12/10 02:06:51;;;;;;;11.60;6.43;;;5.10;1.00;6.40;98825.00;;;;5017865;28;20482;-74
2021/12/10 02:09:19;;;;;;;11.70;6.67;;;5.10;1.00;6.40;98871.00;;;;5035778;28;20482;-73
2021/12/10 02:11:48;;;;;;;11.53;5.97;;;5.10;1.00;6.40;98869.00;;;;5021757;28;20450;-73
2021/12/10 02:14:17;;;;;;;15.43;6.20;;;5.10;1.00;6.40;98870.00;;;;5032391;28;20452;-73
2021/12/10 02:16:45;;;;;;;12.33;6.60;;;5.10;1.00;6.50;98855.00;;;;5034603;28;20476;-73
2021/12/10 02:19:15;;;;;;;14.77;7.17;;;5.10;1.00;6.50;98844.00;;;;5033645;28;20897;-73
2021/12/10 02:21:46;;;;;;;13.27;6.00;;;5.10;1.00;6.60;98856.00;;;;5037722;28;20445;-74
2021/12/10 02:24:16;;;;;;;16.13;5.70;;;5.10;1.00;6.50;98835.00;;;;5025986;28;20457;-73
2021/12/10 02:26:49;;;;;;;13.77;6.10;;;5.20;1.00;6.40;98834.00;;;;5040088;28;20826;-74
2021/12/10 02:29:21;;;;;;;13.43;6.40;;;5.20;1.00;6.40;98832.00;;;;5031456;28;20463;-75
2021/12/10 02:31:50;;;;;;;12.67;6.13;;;5.10;1.00;6.40;98829.00;;;;5024751;28;20543;-73
2021/12/10 02:34:18;;;;;;;12.30;6.27;;;5.10;1.00;6.50;98827.00;;;;5039942;28;20460;-73
2021/12/10 02:36:49;;;;;;;10.40;5.97;;;5.10;1.00;6.40;98816.00;;;;5045921;28;20472;-78
2021/12/10 02:39:21;;;;;;;10.50;5.43;;;5.10;1.00;6.40;98839.00;;;;5033864;28;20540;-78
2021/12/10 02:41:50;;;;;;;11.10;5.30;;;5.10;1.00;6.30;98816.00;;;;5042779;28;20444;-78
2021/12/10 02:44:31;;;;;;;9.33;4.80;;;5.10;1.00;6.30;98796.00;;;;5025928;28;20465;-79
2021/12/10 02:47:03;;;;;;;9.93;5.17;;;5.10;1.00;6.40;98826.00;;;;5039447;28;20488;-79
2021/12/10 02:49:33;;;;;;;8.07;5.50;;;5.10;1.00;6.40;98779.00;;;;5041166;28;20452;-80
2021/12/10 02:52:05;;;;;;;12.67;5.30;;;5.10;1.00;6.20;98788.00;;;;5041114;28;20448;-80
2021/12/10 02:54:35;;;;;;;6.87;4.13;;;5.10;1.00;6.30;98801.00;;;;5074490;28;20420;-78
2021/12/10 02:57:10;;;;;;;12.50;4.83;;;5.00;1.00;6.20;98795.00;;;;5069348;28;20527;-77
2021/12/10 02:59:40;;;;;;;9.20;4.90;;;5.00;1.00;6.00;98772.00;;;;5072365;28;20465;-78
2021/12/10 03:02:13;;;;;;;9.90;4.40;;;5.00;1.00;6.20;98727.00;;;;5057802;28;20444;-79
2021/12/10 03:04:43;;;;;;;9.20;4.20;;;5.00;1.00;6.30;98784.00;;;;5057682;28;20465;-79
2021/12/10 03:07:22;;;;;;;11.57;4.70;;;5.00;1.00;6.20;98744.00;;;;5048428;28;20457;-79
2021/12/10 03:09:54;;;;;;;9.47;4.30;;;5.10;1.00;6.30;98725.00;;;;5037531;28;20441;-80
2021/12/10 03:12:23;;;;;;;11.13;4.30;;;5.00;1.00;6.40;98770.00;;;;5037503;28;20449;-79
2021/12/10 03:14:55;;;;;;;11.03;4.77;;;5.00;1.00;6.40;98711.00;;;;5021336;28;20548;-78
2021/12/10 03:17:30;;;;;;;8.17;4.37;;;5.10;1.00;6.40;98762.00;;;;5049097;28;20971;-78
2021/12/10 03:20:00;;;;;;;7.80;4.43;;;5.10;1.00;6.40;98747.00;;;;5044237;28;20428;-79
2021/12/10 03:22:30;;;;;;;8.20;3.87;;;5.10;1.00;6.40;98764.00;;;;5066209;28;20444;-79
2021/12/10 03:24:58;;;;;;;9.37;3.97;;;5.10;1.00;6.40;98748.00;;;;5034730;28;20452;-79
2021/12/10 03:27:27;;;;;;;13.83;4.87;;;5.10;1.00;6.40;98760.00;;;;5055226;28;20440;-79
2021/12/10 03:29:55;;;;;;;12.10;4.10;;;5.10;1.00;6.40;98732.00;;;;5036023;28;20442;-79
2021/12/10 03:32:30;;;;;;;12.60;4.43;;;5.10;1.00;6.40;98739.00;;;;5043696;28;20444;-79
2021/12/10 03:35:03;;;;;;;12.40;3.97;;;5.10;1.00;6.40;98730.00;;;;5060003;28;20436;-79
2021/12/10 03:37:33;;;;;;;8.73;4.37;;;5.10;1.00;6.50;98696.00;;;;5061104;28;20431;-79
2021/12/10 03:40:01;;;;;;;10.07;4.80;;;5.10;1.00;6.40;98726.00;;;;5050890;28;20442;-79
2021/12/10 03:42:30;;;;;;;8.10;3.70;;;5.10;1.00;6.40;98718.00;;;;5044058;28;20510;-78
2021/12/10 03:44:58;;;;;;;8.23;3.90;;;5.10;1.00;6.40;98723.00;;;;5042851;28;20512;-79
2021/12/10 03:47:26;;;;;;;9.10;3.97;;;5.20;1.00;6.40;98702.00;;;;5033144;28;21059;-79
2021/12/10 03:49:55;;;;;;;6.90;3.83;;;5.10;1.00;6.40;98705.00;;;;5054150;28;20452;-79
2021/12/10 03:52:24;;;;;;;11.43;3.63;;;5.10;1.00;6.40;98665.00;;;;5038140;28;20892;-78
2021/12/10 03:54:55;;;;;;;13.90;4.17;;;5.00;1.00;6.30;98712.00;;;;5042592;28;20498;-79
2021/12/10 03:57:24;;;;;;;14.97;4.40;;;5.00;1.00;6.20;98685.00;;;;5059671;28;20528;-79
2021/12/10 03:59:53;;;;;;;8.13;4.10;;;4.90;1.00;6.20;98694.00;;;;5047250;28;20453;-77
2021/12/10 04:02:21;;;;;;;6.47;3.80;;;4.80;1.00;6.00;98591.00;;;;5046847;28;20452;-78
2021/12/10 04:04:52;;;;;;;13.17;5.03;;;4.70;1.00;5.90;98661.00;;;;5060978;28;20440;-79
2021/12/10 04:07:26;;;;;;;11.87;4.10;;;4.60;1.00;5.90;98687.00;;;;5063978;28;20449;-79
2021/12/10 04:09:56;;;;;;;6.13;3.40;;;4.50;1.00;5.70;98660.00;;;;5047519;28;20425;-78
2021/12/10 04:12:25;;;;;;;12.33;3.97;;;4.50;1.00;5.80;98643.00;;;;5040423;28;20609;-78
2021/12/10 04:14:54;;;;;;;11.03;4.00;;;4.40;1.00;5.70;98656.00;;;;5023190;28;20475;-78
2021/12/10 04:17:23;;;;;;;10.20;4.37;;;4.30;1.00;5.70;98659.00;;;;5063298;28;20449;-79
2021/12/10 04:19:52;;;;;;;8.87;3.90;;;4.20;1.00;5.70;98667.00;;;;5036983;28;20942;-77
2021/12/10 04:22:23;;;;;;;10.10;4.63;;;4.20;1.00;5.70;98668.00;;;;5026478;28;20449;-77
2021/12/10 04:24:52;;;;;;;8.27;3.77;;;4.20;1.00;5.70;98679.00;;;;5045173;28;20513;-77
2021/12/10 04:27:23;;;;;;;8.90;4.23;;;4.10;1.00;5.60;98648.00;;;;5043844;28;20510;-78
2021/12/10 04:29:55;;;;;;;10.90;4.20;;;4.10;1.00;5.60;98627.00;;;;5014617;28;20453;-78
2021/12/10 04:32:26;;;;;;;12.27;4.90;;;4.10;1.00;5.50;98662.00;;;;5032591;28;20464;-78
2021/12/10 04:34:55;;;;;;;14.23;5.50;;;4.10;1.00;5.50;98642.00;;;;5037706;28;20536;-82
2021/12/10 04:37:24;;;;;;;12.90;5.17;;;4.10;1.00;5.50;98630.00;;;;5044426;28;20444;-78
2021/12/10 04:39:53;;;;;;;10.57;5.20;;;4.10;1.00;5.20;98640.00;;;;5022621;28;20848;-77
2021/12/10 04:42:25;;;;;;;12.73;5.63;;;4.00;1.00;5.50;98631.00;;;;5012206;28;20449;-77
2021/12/10 04:44:56;;;;;;;13.47;6.07;;;4.00;1.00;5.30;98637.00;;;;5020767;28;20450;-78
2021/12/10 04:47:25;;;;;;;13.37;6.17;;;4.10;1.00;5.40;98636.00;;;;5019549;28;20449;-78
2021/12/10 04:49:54;;;;;;;11.60;6.30;;;4.00;1.00;5.30;98590.00;;;;5035798;28;20437;-78
2021/12/10 04:52:24;;;;;;;8.47;5.57;;;4.00;1.00;5.30;98636.00;;;;5017933;28;20445;-77
2021/12/10 04:54:53;;;;;;;12.20;6.20;;;4.00;1.00;5.40;98631.00;;;;5018052;28;20526;-78
2021/12/10 04:57:21;;;;;;;9.60;5.77;;;3.90;1.00;5.30;98635.00;;;;5018587;28;20883;-78
2021/12/10 04:59:51;;;;;;;8.43;5.20;;;3.90;1.00;5.20;98627.00;;;;5028349;28;20456;-76
2021/12/10 05:02:20;;;;;;;9.70;6.37;;;3.90;1.00;5.10;98624.00;;;;5048616;28;21132;-78
2021/12/10 05:04:49;;;;;;;16.17;6.13;;;3.90;1.00;5.20;98627.00;;;;5036392;28;20457;-77
2021/12/10 05:07:19;;;;;;;17.13;6.37;;;3.90;1.00;5.20;98614.00;;;;5024101;28;20463;-77
2021/12/10 05:09:47;;;;;;;11.00;5.53;;;3.90;1.00;5.20;98571.00;;;;5051449;28;20524;-77
2021/12/10 05:12:17;;;;;;;12.43;6.27;;;3.90;1.00;5.10;98576.00;;;;5013894;28;20540;-76
2021/12/10 05:14:45;;;;;;;11.80;6.20;;;3.80;1.00;5.10;98596.00;;;;5035341;28;20472;-77
2021/12/10 05:17:18;;;;;;;11.50;6.20;;;3.80;1.00;5.00;98593.00;;;;5030325;28;20566;-78
2021/12/10 05:19:47;;;;;;;9.43;5.90;;;3.80;1.00;5.00;98590.00;;;;5058884;28;20467;-79
2021/12/10 05:22:18;;;;;;;12.67;7.03;;;3.70;1.00;5.00;98568.00;;;;5050620;28;20883;-79
2021/12/10 05:24:47;;;;;;;10.77;5.97;;;3.70;1.00;4.90;98582.00;;;;5054136;28;20452;-79
2021/12/10 05:27:15;;;;;;;11.83;6.50;;;3.70;1.00;4.90;98591.00;;;;5048376;28;20828;-78
2021/12/10 05:29:44;;;;;;;12.37;5.97;;;3.70;1.00;4.80;98593.00;;;;5026791;28;20456;-77
2021/12/10 05:32:16;;;;;;;13.50;5.97;;;3.60;1.00;4.80;98582.00;;;;5019398;28;20919;-77
2021/12/10 05:34:46;;;;;;;13.20;6.30;;;3.60;1.00;4.70;98579.00;;;;5018293;28;20465;-77
2021/12/10 05:37:15;;;;;;;10.40;5.53;;;3.60;1.00;4.70;98551.00;;;;5016780;28;20476;-77
2021/12/10 05:39:44;;;;;;;10.90;5.77;;;3.50;1.00;4.60;98562.00;;;;5017040;28;20556;-77
2021/12/10 05:42:12;;;;;;;13.13;7.03;;;3.50;1.00;4.60;98545.00;;;;5026137;28;20965;-77
2021/12/10 05:44:40;;;;;;;11.83;6.27;;;3.50;1.00;4.60;98526.00;;;;5023035;28;20800;-77
2021/12/10 05:47:09;;;;;;;8.93;5.27;;;3.50;1.00;4.60;98550.00;;;;5032792;28;20875;-76
2021/12/10 05:49:39;;;;;;;13.80;5.63;;;3.50;1.00;4.60;98536.00;;;;5034658;28;20453;-77
2021/12/10 05:52:09;;;;;;;11.90;6.60;;;3.40;1.00;4.60;98544.00;;;;5023861;28;20820;-76
2021/12/10 05:54:38;;;;;;;11.40;6.33;;;3.40;1.00;4.60;98547.00;;;;5015800;28;20469;-77
2021/12/10 05:57:06;;;;;;;11.43;6.30;;;3.30;1.00;4.70;98535.00;;;;5024821;28;20821;-76
2021/12/10 05:59:35;;;;;;;7.53;5.60;;;3.20;1.00;4.70;98491.00;;;;5037392;28;20962;-77
2021/12/10 06:02:05;;;;;;;11.17;5.17;;;3.10;1.00;4.70;98529.00;;;;5027887;28;20482;-78
2021/12/10 06:04:34;;;;;;;11.00;5.80;;;3.10;1.00;4.70;98511.00;;;;5013975;28;20547;-78
2021/12/10 06:07:06;;;;;;;16.23;6.70;;;3.10;1.00;4.70;98520.00;;;;5025724;28;20472;-77
2021/12/10 06:09:35;;;;;;;11.20;6.07;;;3.00;1.00;4.60;98517.00;;;;5006090;28;20438;-76
2021/12/10 06:12:05;;;;;;;12.33;6.20;;;3.00;1.00;4.60;98488.00;;;;5034647;28;20452;-77
2021/12/10 06:14:33;;;;;;;11.70;6.93;;;2.90;1.00;4.50;98503.00;;;;5048691;28;21066;-77
2021/12/10 06:17:02;;;;;;;11.67;6.87;;;2.90;1.00;4.50;98466.00;;;;5051803;28;20471;-77
2021/12/10 06:19:30;;;;;;;11.33;7.70;;;2.90;1.00;4.50;98503.00;;;;5053735;28;20434;-78
2021/12/10 06:21:58;;;;;;;10.53;7.10;;;2.90;1.00;4.40;98502.00;;;;5046682;28;20449;-78
2021/12/10 06:24:28;;;;;;;14.60;7.60;;;2.80;1.00;4.40;98302.00;;;;5024503;28;20512;-78
2021/12/10 06:26:57;;;;;;;12.33;7.70;;;2.70;1.00;4.40;98467.00;;;;5003305;28;20567;-77
2021/12/10 06:29:27;;;;;;;14.90;7.63;;;2.80;1.00;4.40;98484.00;;;;5017624;28;20978;-78
2021/12/10 06:31:56;;;;;;;15.10;7.20;;;2.70;1.00;4.30;98431.00;;;;5009571;28;20535;-78
2021/12/10 06:34:25;;;;;;;15.20;8.53;;;2.60;1.00;4.30;98474.00;;;;5015440;28;21008;-78
2021/12/10 06:36:53;;;;;;;18.57;8.37;;;2.60;1.00;4.30;98457.00;;;;5044640;28;20464;-77
2021/12/10 06:39:22;;;;;;;11.77;7.73;;;2.60;1.00;4.20;98468.00;;;;5052965;28;20439;-78
2021/12/10 06:41:54;;;;;;;11.13;7.33;;;2.60;1.00;4.30;98420.00;;;;5033361;28;20495;-79
2021/12/10 06:44:23;;;;;;;13.83;8.23;;;2.60;1.00;4.10;98460.00;;;;5049955;28;20446;-78
2021/12/10 06:46:53;;;;;;;11.87;7.70;;;2.60;1.00;4.20;98439.00;;;;5030682;28;20477;-77
2021/12/10 06:49:21;;;;;;;11.20;8.17;;;2.50;1.00;4.20;98439.00;;;;5027524;28;20468;-76
2021/12/10 06:51:50;;;;;;;14.43;7.80;;;2.50;1.00;4.20;98442.00;;;;5034673;28;20903;-77
2021/12/10 06:54:19;;;;;;;14.20;7.97;;;2.50;1.00;4.10;98408.00;;;;5038442;22;20500;-78
2021/12/10 06:56:47;;;;;;;11.63;8.03;;;2.50;1.00;4.10;98426.00;;;;5059984;28;20486;-78
2021/12/10 06:59:17;;;;;;;14.83;8.30;;;2.50;1.00;4.10;98430.00;;;;5055500;28;20459;-77
2021/12/10 07:01:46;;;;;;;12.57;8.00;;;2.50;1.00;4.00;98428.00;;;;5047306;28;20459;-77
2021/12/10 07:04:15;;;;;;;12.93;8.20;;;2.50;1.00;4.10;98392.00;;;;5051117;28;20555;-78
2021/12/10 07:06:46;;;;;;;12.77;8.10;;;2.50;1.00;3.90;98409.00;;;;5041458;28;20524;-79
2021/12/10 07:09:19;;;;;;;17.50;9.67;;;2.40;1.00;4.00;98436.00;;;;5059732;28;20533;-75
2021/12/10 07:11:48;;;;;;;12.93;8.43;;;2.40;1.00;4.10;98423.00;;;;5053681;28;20470;-79
2021/12/10 07:14:19;;;;;;;12.67;7.60;;;2.40;1.00;4.10;98411.00;;;;5044641;28;20513;-79
2021/12/10 07:16:50;;;;;;;10.37;8.30;;;2.40;1.00;4.10;98417.00;;;;5028860;28;20459;-79
2021/12/10 07:19:19;;;;;;;13.50;8.90;;;2.40;1.00;4.10;98412.00;;;;5034505;28;20449;-79
2021/12/10 07:21:48;;;;;;;10.93;7.87;;;2.40;1.00;4.10;98401.00;;;;5046141;28;20597;-79
2021/12/10 07:24:20;;;;;;;10.93;7.80;;;2.40;1.00;4.10;98404.00;;;;5050259;28;20503;-77
2021/12/10 07:26:50;;;;;;;15.60;8.53;;;2.40;1.00;4.10;98376.00;;;;5047058;28;20470;-79
2021/12/10 07:29:21;;;;;;;13.23;8.63;;;2.40;1.00;4.10;98388.00;;;;5042699;28;20492;-79
2021/12/10 07:31:50;;;;;;;13.80;9.00;;;2.40;1.00;4.10;98389.00;;;;5042257;28;20452;-80
2021/12/10 07:34:18;;;;;;;11.90;8.63;;;2.40;1.00;4.10;98339.00;;;;5022645;28;20481;-77
2021/12/10 07:36:47;;;;;;;16.57;8.90;;;2.40;1.00;4.10;98396.00;;;;5020852;28;20555;-78
2021/12/10 07:39:15;;;;;;;18.40;9.40;;;2.40;1.00;4.10;98385.00;;;;5039581;28;20452;-78
2021/12/10 07:41:44;;;;;;;12.83;8.40;;;2.40;1.00;4.10;98380.00;;;;5022551;28;22186;-78
2021/12/10 07:44:13;;;;;;;18.70;9.10;;;2.50;1.00;4.20;98385.00;;;;5020564;28;21067;-78
2021/12/10 07:46:45;;;;;;;12.63;8.60;;;2.50;1.00;4.20;98371.00;;;;5034661;28;20454;-78
2021/12/10 07:49:16;;;;;;;16.80;8.07;;;2.60;1.00;4.10;98389.00;;;;5011778;28;20451;-78
2021/12/10 07:51:49;;;;;;;11.13;8.27;;;2.60;1.00;4.20;98395.00;;;;5045948;28;20457;-78
2021/12/10 07:54:18;;;;;;;12.40;8.10;;;2.60;1.00;4.20;98333.00;;;;5042381;28;20484;-79
2021/12/10 07:56:54;;;;;;;11.30;7.90;;;2.60;1.00;4.20;98341.00;;;;5048774;28;20504;-79
2021/12/10 07:59:24;;;;;;;14.40;6.87;;;2.70;1.00;4.40;98357.00;;;;5048927;28;20461;-78
2021/12/10 08:01:54;;;;;;;16.00;7.70;;;2.70;1.00;4.40;98364.00;;;;5041222;28;20472;-79
2021/12/10 08:04:22;;;;;;;14.43;7.00;;;2.80;1.00;4.50;98345.00;;;;5022813;28;20491;-79
2021/12/10 08:06:51;;;;;;;10.60;6.70;;;2.80;1.00;4.50;98357.00;;;;5022679;28;20531;-76
2021/12/10 08:09:19;;;;;;;13.77;7.10;;;2.90;1.00;4.50;98334.00;;;;5018428;28;20463;-77
2021/12/10 08:11:48;;;;;;;9.57;5.93;;;3.00;1.00;4.60;98346.00;;;;5036575;28;20456;-77
2021/12/10 08:14:16;;;;;;;10.50;6.40;;;3.00;1.00;4.60;98348.00;;;;5038530;28;20477;-79
2021/12/10 08:16:45;;;;;;;9.43;6.50;;;3.00;1.00;4.70;98367.00;;;;5038818;28;20477;-79
2021/12/10 08:19:15;;;;;;;10.20;7.20;;;3.00;1.00;4.80;98314.00;;;;5049302;28;20855;-78
2021/12/10 08:21:44;;;;;;;10.17;6.23;;;3.00;1.00;4.80;98286.00;;;;5053901;28;20465;-78
2021/12/10 08:24:13;;;;;;;9.37;6.43;;;3.10;1.00;4.90;98347.00;;;;5055200;28;20452;-77
2021/12/10 08:26:42;;;;;;;14.20;6.30;;;3.10;1.00;4.90;98362.00;;;;5055069;28;20457;-78
2021/12/10 08:29:12;;;;;;;10.10;6.50;;;3.20;1.00;5.00;98342.00;;;;5028173;28;20456;-78
2021/12/10 08:31:41;;;;;;;10.97;5.93;;;3.20;1.00;5.00;98347.00;;;;5024090;28;20453;-76
2021/12/10 08:34:10;;;;;;;8.07;5.37;;;3.30;1.00;5.10;98344.00;;;;5039038;28;20788;-77
2021/12/10 08:36:40;;;;;;;11.70;5.67;;;3.40;1.00;5.10;98318.00;;;;5044123;28;20475;-77
2021/12/10 08:39:11;;;;;;;12.53;5.50;;;3.40;1.00;5.10;98341.00;;;;5040086;28;20459;-77
2021/12/10 08:41:41;;;;;;;10.13;5.47;;;3.40;1.00;5.20;98340.00;;;;5042261;28;20449;-78
2021/12/10 08:44:12;;;;;;;16.13;5.30;;;3.50;1.00;5.30;98333.00;;;;5042929;28;20488;-79
2021/12/10 08:46:44;;;;;;;10.87;4.70;;;3.50;1.00;5.30;98267.00;;;;5045540;28;20521;-76
2021/12/10 08:49:14;;;;;;;7.90;4.67;;;3.60;1.00;5.30;98341.00;;;;5057151;28;20518;-78
2021/12/10 08:51:48;;;;;;;7.10;5.00;;;3.70;1.00;5.50;98331.00;;;;5052935;28;20460;-78
2021/12/10 08:54:19;;;;;;;7.20;4.90;;;3.70;1.00;5.50;98335.00;;;;5022439;28;20490;-78
2021/12/10 08:56:50;;;;;;;6.97;4.67;;;3.80;1.00;5.50;98335.00;;;;5030706;28;20483;-79
2021/12/10 08:59:22;;;;;;;6.77;4.87;;;3.80;1.00;5.50;98325.00;;;;5038827;28;20518;-78
2021/12/10 09:01:56;;;;;;;6.33;4.00;;;3.90;1.00;5.50;98335.00;;;;5033841;28;20529;-78
2021/12/10 09:04:26;;;;;;;10.20;4.40;;;3.90;1.00;5.40;98324.00;;;;5038628;28;20472;-78
2021/12/10 09:07:02;;;;;;;7.90;4.50;;;3.90;1.00;5.30;98332.00;;;;5017101;28;20461;-79
2021/12/10 09:09:31;;;;;;;9.67;4.53;;;3.80;1.00;5.40;98323.00;;;;5023932;28;20437;-79
2021/12/10 09:12:04;;;;;;;8.03;4.27;;;3.80;1.00;5.50;98326.00;;;;5029412;28;20930;-79
2021/12/10 09:14:39;;;;;;;9.70;4.50;;;3.80;1.00;5.50;98284.00;;;;5032717;28;20469;-78
2021/12/10 09:17:11;;;;;;;8.03;4.30;;;3.90;1.00;5.50;98319.00;;;;5039889;28;20540;-80
2021/12/10 09:19:41;;;;;;;8.37;4.30;;;4.10;1.00;5.60;98318.00;;;;5041116;28;20464;-78
2021/12/10 09:22:11;;;;;;;10.87;4.60;;;4.20;1.00;5.50;98313.00;;;;5037268;28;20473;-77
2021/12/10 09:24:42;;;;;;;6.20;4.30;;;4.20;1.00;5.70;98315.00;;;;5054637;28;20471;-78
2021/12/10 09:27:13;;;;;;;8.90;4.30;;;4.20;1.00;5.70;98291.00;;;;5055257;28;20445;-79
2021/12/10 09:29:45;;;;;;;5.63;4.40;;;4.10;1.00;5.60;98319.00;;;;5058046;28;20437;-78
2021/12/10 09:32:20;;;;;;;8.47;5.17;;;4.00;1.00;5.40;98315.00;;;;5058273;28;20464;-78
2021/12/10 09:34:49;;;;;;;6.70;4.67;;;3.90;1.00;5.50;98333.00;;;;5040811;28;20512;-78
2021/12/10 09:37:22;;;;;;;6.60;4.13;;;4.00;1.00;5.50;98296.00;;;;5038402;28;20472;-79
2021/12/10 09:39:52;;;;;;;7.00;3.80;;;4.00;1.00;5.70;98293.00;;;;5032608;28;20446;-78
2021/12/10 09:42:22;;;;;;;8.53;3.93;;;4.00;1.00;5.80;98307.00;;;;5022032;28;20889;-78
2021/12/10 09:44:54;;;;;;;6.67;3.60;;;4.10;1.00;5.70;98313.00;;;;5046741;28;20571;-78
2021/12/10 09:47:23;;;;;;;6.23;3.57;;;4.20;1.00;5.70;98312.00;;;;5021676;28;20856;-78
2021/12/10 09:49:55;;;;;;;6.63;3.57;;;4.30;1.00;5.80;98316.00;;;;5034508;28;20448;-77
2021/12/10 09:52:28;;;;;;;8.90;3.80;;;4.40;1.00;5.80;98305.00;;;;5040838;28;20433;-77
2021/12/10 09:54:57;;;;;;;7.90;3.77;;;4.50;1.00;6.00;98297.00;;;;5020688;28;20512;-78
2021/12/10 09:57:29;;;;;;;9.43;5.20;;;4.60;1.00;6.00;98304.00;;;;5022986;28;20465;-79
2021/12/10 10:00:24;;;;;;;7.20;5.03;;;4.50;1.00;6.10;98300.00;;;;5054250;28;20437;-76
2021/12/10 10:02:55;;;;;;;6.63;3.57;;;4.60;1.00;6.10;98244.00;;;;5056774;28;20397;-77
2021/12/10 10:05:27;;;;;;;8.20;3.80;;;4.60;1.00;6.10;98270.00;;;;5050597;28;20469;-76
2021/12/10 10:07:59;;;;;;;5.90;3.77;;;4.60;1.00;6.20;98268.00;;;;5054401;28;20451;-77
2021/12/10 10:10:31;;;;;;;8.73;4.17;;;4.70;1.00;6.50;98288.00;;;;5039576;28;20472;-78
2021/12/10 10:13:02;;;;;;;6.27;3.80;;;4.70;1.00;6.60;98241.00;;;;5020828;28;20448;-78
2021/12/10 10:15:41;;;;;;;8.80;4.13;;;4.80;1.00;6.80;98261.00;;;;5035438;28;20468;-77
2021/12/10 10:18:11;;;;;;;7.67;3.43;;;4.90;1.00;6.90;98254.00;;;;5018506;28;20464;-77
2021/12/10 10:20:44;;;;;;;8.63;3.90;;;5.00;1.00;6.90;98256.00;;;;5035917;28;20465;-78
2021/12/10 10:23:14;;;;;;;6.87;3.90;;;5.20;1.00;7.20;98261.00;;;;5035187;28;20445;-78
2021/12/10 10:25:48;;;;;;;5.40;3.77;;;5.30;1.00;7.30;98250.00;;;;5038602;28;20449;-76
2021/12/10 10:28:17;;;;;;;6.90;4.13;;;5.40;1.00;7.30;98227.00;;;;5037255;28;20457;-77
2021/12/10 10:30:54;;;;;;;8.83;4.30;;;5.40;1.00;7.40;98233.00;;;;5036180;28;20476;-77
2021/12/10 10:33:22;;;;;;;6.83;3.60;;;5.40;1.00;7.40;98229.00;;;;5034783;28;20461;-77
2021/12/10 10:35:57;;;;;;;9.03;3.63;;;5.50;1.00;7.40;98239.00;;;;5017681;28;20556;-77
2021/12/10 10:38:28;;;;;;;7.07;4.00;;;5.50;1.00;7.40;98244.00;;;;5035215;28;20574;-77
2021/12/10 10:41:02;;;;;;;6.90;4.23;;;5.60;1.00;7.60;98236.00;;;;5036042;28;20433;-78
2021/12/10 10:43:32;;;;;;;9.27;4.30;;;5.60;1.00;7.60;98221.00;;;;5035163;28;20449;-77
2021/12/10 10:46:01;;;;;;;9.60;4.30;;;5.70;1.00;7.60;98218.00;;;;5025616;28;20449;-77
2021/12/10 10:48:30;;;;;;;6.17;3.60;;;5.60;1.00;7.70;98219.00;;;;5035177;28;20510;-77
2021/12/10 10:51:04;;;;;;;6.57;3.83;;;5.70;1.00;7.80;98223.00;;;;5017661;28;21041;-78
2021/12/10 10:53:44;;;;;;;8.30;4.03;;;5.80;1.00;7.80;98212.00;;;;5020315;28;20916;-77
2021/12/10 10:56:16;;;;;;;7.60;3.50;;;5.80;1.00;7.80;98208.00;;;;5035243;28;20985;-77
2021/12/10 10:58:50;;;;;;;8.23;4.40;;;5.80;1.00;7.90;98208.00;;;;5016769;28;20448;-78
2021/12/10 11:01:24;;;;;;;8.87;4.17;;;5.90;1.00;7.90;98227.00;;;;5034723;28;20516;-77
2021/12/10 11:04:14;;;;;;;6.20;4.20;;;5.80;1.00;7.90;98232.00;;;;5033535;28;20527;-78
2021/12/10 11:06:46;;;;;;;4.63;3.87;;;5.90;1.00;7.80;98237.00;;;;5033815;28;20842;-77
2021/12/10 11:09:20;;;;;;;6.80;4.43;;;5.90;1.00;7.80;98219.00;;;;5035169;28;20571;-77
2021/12/10 11:11:52;;;;;;;5.60;3.93;;;5.90;1.00;7.80;98222.00;;;;5035737;28;20453;-76
2021/12/10 11:14:26;;;;;;;7.20;4.30;;;5.80;1.00;7.70;98218.00;;;;5035013;28;20456;-77
2021/12/10 11:17:03;;;;;;;6.67;3.97;;;5.90;1.00;7.80;98211.00;;;;5035204;28;20459;-78
2021/12/10 11:19:56;;;;;;;5.53;3.47;;;5.80;1.00;7.70;98218.00;;;;5036556;28;21161;-77
2021/12/10 11:22:25;;;;;;;7.10;3.97;;;5.90;1.00;7.80;98203.00;;;;5036862;28;20510;-77
2021/12/10 11:24:59;;;;;;;10.30;3.70;;;5.90;1.00;7.80;98210.00;;;;5016327;28;20468;-76
2021/12/10 11:27:32;;;;;;;4.90;3.80;;;5.90;1.00;7.80;98212.00;;;;5034638;28;20509;-76
2021/12/10 11:30:16;;;;;;;5.80;3.90;;;5.90;1.00;7.70;98212.00;;;;5017528;28;20456;-78
2021/12/10 11:32:47;;;;;;;6.40;3.70;;;5.90;1.00;7.70;98168.00;;;;5035307;28;20463;-76
2021/12/10 11:35:20;;;;;;;6.17;4.13;;;5.90;1.00;7.90;98195.00;;;;5034472;28;20500;-77
2021/12/10 11:38:05;;;;;;;7.70;3.97;;;6.00;1.00;8.00;98196.00;;;;5022855;28;20490;-78